sensor_id;sensor_type;location;lat;lon;timestamp;pressure;altitude;pressure_sealevel;temperature;humidity
6413;BME280;3239;48.714;9.472;2023-04-15T00:00:10;97366.50;;;4.44;100.00
6413;BME280;3239;48.714;9.472;2023-04-15T00:02:36;97364.78;;;4.41;100.00
6413;BME280;3239;48.714;9.472;2023-04-15T00:05:04;97368.00;;;4.39;100.00
6413;BME280;3239;48.714;9.472;2023-04-15T00:07:30;97357.47;;;4.25;100.00
6413;BME280;3239;48.714;9.472;2023-04-15T00:09:56;97364.38;;;4.26;100.00
6413;BME280;3239;48.714;9.472;2023-04-15T00:12:24;97364.25;;;4.02;100.00
6413;BME280;3239;48.714;9.472;2023-04-15T00:14:50;97368.47;;;3.86;100.00
6413;BME280;3239;48.714;9.472;2023-04-15T00:17:16;97373.09;;;4.02;100.00
6413;BME280;3239;48.714;9.472;2023-04-15T00:19:42;97377.53;;;4.00;100.00
6413;BME280;3239;48.714;9.472;2023-04-15T00:22:12;97378.53;;;4.02;100.00
6413;BME280;3239;48.714;9.472;2023-04-15T00:24:38;97384.19;;;3.99;100.00
6413;BME280;3239;48.714;9.472;2023-04-15T00:27:04;97389.13;;;3.95;100.00
6413;BME280;3239;48.714;9.472;2023-04-15T00:29:30;97380.50;;;3.96;100.00
6413;BME280;3239;48.714;9.472;2023-04-15T00:31:56;97380.28;;;3.89;100.00
6413;BME280;3239;48.714;9.472;2023-04-15T00:34:22;97387.19;;;3.90;100.00
6413;BME280;3239;48.714;9.472;2023-04-15T00:36:49;97379.53;;;3.99;100.00
6413;BME280;3239;48.714;9.472;2023-04-15T00:39:16;97384.19;;;3.99;100.00
6413;BME280;3239;48.714;9.472;2023-04-15T00:41:43;97384.44;;;4.01;100.00
6413;BME280;3239;48.714;9.472;2023-04-15T00:44:09;97385.94;;;4.02;100.00
6413;BME280;3239;48.714;9.472;2023-04-15T00:46:37;97381.47;;;4.04;100.00
6413;BME280;3239;48.714;9.472;2023-04-15T00:49:05;97384.16;;;4.10;100.00
6413;BME280;3239;48.714;9.472;2023-04-15T00:51:32;97387.41;;;3.97;100.00
6413;BME280;3239;48.714;9.472;2023-04-15T00:54:06;97383.00;;;3.89;100.00
6413;BME280;3239;48.714;9.472;2023-04-15T00:56:37;97381.03;;;3.84;100.00
6413;BME280;3239;48.714;9.472;2023-04-15T00:59:04;97385.97;;;3.80;100.00
6413;BME280;3239;48.714;9.472;2023-04-15T01:01:36;97392.16;;;3.80;100.00
6413;BME280;3239;48.714;9.472;2023-04-15T01:04:03;97387.25;;;3.73;100.00
6413;BME280;3239;48.714;9.472;2023-04-15T01:06:30;97387.75;;;3.66;100.00
6413;BME280;3239;48.714;9.472;2023-04-15T01:08:59;97396.88;;;3.63;100.00
6413;BME280;3239;48.714;9.472;2023-04-15T01:11:26;97384.06;;;3.58;100.00
6413;BME280;3239;48.714;9.472;2023-04-15T01:13:52;97393.91;;;3.61;100.00
6413;BME280;3239;48.714;9.472;2023-04-15T01:16:20;97392.44;;;3.60;100.00
6413;BME280;3239;48.714;9.472;2023-04-15T01:18:46;97393.19;;;3.55;100.00
6413;BME280;3239;48.714;9.472;2023-04-15T01:21:12;97390.47;;;3.55;100.00
6413;BME280;3239;48.714;9.472;2023-04-15T01:23:38;97400.34;;;3.47;100.00
6413;BME280;3239;48.714;9.472;2023-04-15T01:26:05;97396.16;;;3.41;100.00
6413;BME280;3239;48.714;9.472;2023-04-15T01:28:32;97397.16;;;3.32;100.00
6413;BME280;3239;48.714;9.472;2023-04-15T01:31:14;97391.00;;;3.37;100.00
6413;BME280;3239;48.714;9.472;2023-04-15T01:33:41;97389.28;;;3.34;100.00
6413;BME280;3239;48.714;9.472;2023-04-15T01:36:09;97390.03;;;3.35;100.00
6413;BME280;3239;48.714;9.472;2023-04-15T01:38:36;97394.69;;;3.34;100.00
6413;BME280;3239;48.714;9.472;2023-04-15T01:41:02;97389.53;;;3.36;100.00
6413;BME280;3239;48.714;9.472;2023-04-15T01:43:29;97393.94;;;3.39;100.00
6413;BME280;3239;48.714;9.472;2023-04-15T01:45:55;97390.03;;;3.40;100.00
6413;BME280;3239;48.714;9.472;2023-04-15T01:48:21;97392.97;;;3.04;100.00
6413;BME280;3239;48.714;9.472;2023-04-15T01:50:48;97401.34;;;3.06;100.00
6413;BME280;3239;48.714;9.472;2023-04-15T01:53:14;97406.50;;;3.04;100.00
6413;BME280;3239;48.714;9.472;2023-04-15T01:55:40;97409.72;;;2.97;100.00
6413;BME280;3239;48.714;9.472;2023-04-15T01:58:06;97413.63;;;2.85;100.00
6413;BME280;3239;48.714;9.472;2023-04-15T02:00:32;97424.47;;;2.90;100.00
6413;BME280;3239;48.714;9.472;2023-04-15T02:02:58;97418.56;;;2.92;100.00
6413;BME280;3239;48.714;9.472;2023-04-15T02:05:24;97424.47;;;2.90;100.00
6413;BME280;3239;48.714;9.472;2023-04-15T02:07:50;97433.06;;;2.94;100.00
6413;BME280;3239;48.714;9.472;2023-04-15T02:10:16;97431.09;;;2.95;100.00
6413;BME280;3239;48.714;9.472;2023-04-15T02:12:42;97439.22;;;2.95;100.00
6413;BME280;3239;48.714;9.472;2023-04-15T02:15:08;97436.78;;;2.97;100.00
6413;BME280;3239;48.714;9.472;2023-04-15T02:17:35;97432.31;;;2.94;100.00
6413;BME280;3239;48.714;9.472;2023-04-15T02:20:03;97428.34;;;2.73;100.00
6413;BME280;3239;48.714;9.472;2023-04-15T02:22:30;97427.84;;;2.58;100.00
6413;BME280;3239;48.714;9.472;2023-04-15T02:24:56;97437.69;;;2.61;100.00
6413;BME280;3239;48.714;9.472;2023-04-15T02:27:22;97442.84;;;2.64;100.00
6413;BME280;3239;48.714;9.472;2023-04-15T02:29:48;97449.00;;;2.70;100.00
6413;BME280;3239;48.714;9.472;2023-04-15T02:32:16;97442.84;;;2.64;100.00
6413;BME280;3239;48.714;9.472;2023-04-15T02:34:42;97441.66;;;2.71;100.00
6413;BME280;3239;48.714;9.472;2023-04-15T02:37:11;97444.34;;;2.71;100.00
6413;BME280;3239;48.714;9.472;2023-04-15T02:39:38;97441.38;;;2.63;100.00
6413;BME280;3239;48.714;9.472;2023-04-15T02:42:04;97441.84;;;2.62;100.00
6413;BME280;3239;48.714;9.472;2023-04-15T02:44:31;97448.75;;;2.63;100.00
6413;BME280;3239;48.714;9.472;2023-04-15T02:46:57;97447.28;;;2.62;100.00
6413;BME280;3239;48.714;9.472;2023-04-15T02:49:24;97441.13;;;2.56;100.00
6413;BME280;3239;48.714;9.472;2023-04-15T02:51:50;97441.13;;;2.56;100.00
6413;BME280;3239;48.714;9.472;2023-04-15T02:54:20;97448.25;;;2.59;100.00
6413;BME280;3239;48.714;9.472;2023-04-15T02:56:47;97444.81;;;2.58;100.00
6413;BME280;3239;48.714;9.472;2023-04-15T02:59:13;97432.25;;;2.55;100.00
6413;BME280;3239;48.714;9.472;2023-04-15T03:01:39;97433.47;;;2.54;100.00
6413;BME280;3239;48.714;9.472;2023-04-15T03:04:04;97441.56;;;2.43;100.00
6413;BME280;3239;48.714;9.472;2023-04-15T03:06:32;97438.84;;;2.43;100.00
6413;BME280;3239;48.714;9.472;2023-04-15T03:08:57;97439.88;;;2.51;100.00
6413;BME280;3239;48.714;9.472;2023-04-15T03:11:24;97443.53;;;2.48;100.00
6413;BME280;3239;48.714;9.472;2023-04-15T03:13:51;97448.16;;;2.37;100.00
6413;BME280;3239;48.714;9.472;2023-04-15T03:16:17;97451.09;;;2.28;100.00
6413;BME280;3239;48.714;9.472;2023-04-15T03:18:43;97449.88;;;2.29;100.00
6413;BME280;3239;48.714;9.472;2023-04-15T03:21:09;97448.66;;;2.35;100.00
6413;BME280;3239;48.714;9.472;2023-04-15T03:23:34;97452.84;;;2.36;100.00
6413;BME280;3239;48.714;9.472;2023-04-15T03:26:04;97445.25;;;2.40;100.00
6413;BME280;3239;48.714;9.472;2023-04-15T03:28:30;97452.63;;;2.45;100.00
6413;BME280;3239;48.714;9.472;2023-04-15T03:30:57;97445.50;;;2.48;100.00
6413;BME280;3239;48.714;9.472;2023-04-15T03:33:23;97437.91;;;2.46;100.00
6413;BME280;3239;48.714;9.472;2023-04-15T03:35:50;97436.13;;;2.27;100.00
6413;BME280;3239;48.714;9.472;2023-04-15T03:38:17;97444.47;;;2.29;100.00
6413;BME280;3239;48.714;9.472;2023-04-15T03:40:43;97444.25;;;2.38;100.00
6413;BME280;3239;48.714;9.472;2023-04-15T03:43:08;97444.22;;;2.32;100.00
6413;BME280;3239;48.714;9.472;2023-04-15T03:45:34;97459.72;;;2.37;100.00
6413;BME280;3239;48.714;9.472;2023-04-15T03:48:00;97453.59;;;2.42;100.00
6413;BME280;3239;48.714;9.472;2023-04-15T03:50:26;97447.97;;;2.46;100.00
6413;BME280;3239;48.714;9.472;2023-04-15T03:52:52;97451.66;;;2.48;100.00
6413;BME280;3239;48.714;9.472;2023-04-15T03:55:18;97447.97;;;2.46;100.00
6413;BME280;3239;48.714;9.472;2023-04-15T03:57:44;97449.69;;;2.49;100.00
6413;BME280;3239;48.714;9.472;2023-04-15T04:00:10;97447.47;;;2.47;100.00
6413;BME280;3239;48.714;9.472;2023-04-15T04:02:36;97445.00;;;2.44;100.00
6413;BME280;3239;48.714;9.472;2023-04-15T04:05:02;97445.72;;;2.44;100.00
6413;BME280;3239;48.714;9.472;2023-04-15T04:07:28;97443.28;;;2.41;100.00
6413;BME280;3239;48.714;9.472;2023-04-15T04:09:56;97449.91;;;2.40;100.00
6413;BME280;3239;48.714;9.472;2023-04-15T04:12:22;97451.59;;;2.32;100.00
6413;BME280;3239;48.714;9.472;2023-04-15T04:14:48;97456.75;;;2.24;100.00
6413;BME280;3239;48.714;9.472;2023-04-15T04:17:13;97463.91;;;2.33;100.00
6413;BME280;3239;48.714;9.472;2023-04-15T04:19:39;97463.84;;;2.27;100.00
6413;BME280;3239;48.714;9.472;2023-04-15T04:22:05;97460.19;;;2.30;100.00
6413;BME280;3239;48.714;9.472;2023-04-15T04:24:31;97461.63;;;2.20;100.00
6413;BME280;3239;48.714;9.472;2023-04-15T04:26:57;97463.81;;;2.16;100.00
6413;BME280;3239;48.714;9.472;2023-04-15T04:29:23;97473.88;;;2.16;100.00
6413;BME280;3239;48.714;9.472;2023-04-15T04:31:49;97478.94;;;1.97;100.00
6413;BME280;3239;48.714;9.472;2023-04-15T04:34:15;97475.53;;;2.02;100.00
6413;BME280;3239;48.714;9.472;2023-04-15T04:36:41;97480.97;;;2.08;100.00
6413;BME280;3239;48.714;9.472;2023-04-15T04:39:07;97479.97;;;2.11;100.00
6413;BME280;3239;48.714;9.472;2023-04-15T04:41:32;97478.78;;;2.12;100.00
6413;BME280;3239;48.714;9.472;2023-04-15T04:43:58;97490.09;;;2.16;100.00
6413;BME280;3239;48.714;9.472;2023-04-15T04:46:24;97481.50;;;2.12;100.00
6413;BME280;3239;48.714;9.472;2023-04-15T04:48:49;97480.22;;;2.07;100.00
6413;BME280;3239;48.714;9.472;2023-04-15T04:51:15;97478.22;;;2.02;100.00
6413;BME280;3239;48.714;9.472;2023-04-15T04:53:41;97483.16;;;2.04;100.00
6413;BME280;3239;48.714;9.472;2023-04-15T04:56:08;97483.63;;;2.02;100.00
6413;BME280;3239;48.714;9.472;2023-04-15T04:58:33;97483.41;;;2.06;100.00
6413;BME280;3239;48.714;9.472;2023-04-15T05:00:59;97477.72;;;1.98;100.00
6413;BME280;3239;48.714;9.472;2023-04-15T05:03:25;97483.13;;;1.98;100.00
6413;BME280;3239;48.714;9.472;2023-04-15T05:05:51;97483.91;;;2.04;100.00
6413;BME280;3239;48.714;9.472;2023-04-15T05:08:17;97479.72;;;2.03;100.00
6413;BME280;3239;48.714;9.472;2023-04-15T05:10:43;97472.09;;;2.02;100.00
6413;BME280;3239;48.714;9.472;2023-04-15T05:13:09;97479.97;;;2.05;100.00
6413;BME280;3239;48.714;9.472;2023-04-15T05:15:34;97474.97;;;1.93;100.00
6413;BME280;3239;48.714;9.472;2023-04-15T05:18:01;97466.94;;;2.04;100.00
6413;BME280;3239;48.714;9.472;2023-04-15T05:20:27;97470.88;;;2.03;100.00
6413;BME280;3239;48.714;9.472;2023-04-15T05:22:53;97473.09;;;2.10;100.00
6413;BME280;3239;48.714;9.472;2023-04-15T05:25:19;97476.56;;;2.16;100.00
6413;BME280;3239;48.714;9.472;2023-04-15T05:27:45;97473.91;;;2.21;100.00
6413;BME280;3239;48.714;9.472;2023-04-15T05:30:11;97481.25;;;2.21;100.00
6413;BME280;3239;48.714;9.472;2023-04-15T05:32:37;97481.22;;;2.10;100.00
6413;BME280;3239;48.714;9.472;2023-04-15T05:35:03;97480.50;;;2.15;100.00
6413;BME280;3239;48.714;9.472;2023-04-15T05:37:30;97482.06;;;2.27;100.00
6413;BME280;3239;48.714;9.472;2023-04-15T05:39:55;97485.50;;;2.33;100.00
6413;BME280;3239;48.714;9.472;2023-04-15T05:42:21;97491.63;;;2.28;100.00
6413;BME280;3239;48.714;9.472;2023-04-15T05:44:47;97486.13;;;2.06;100.00
6413;BME280;3239;48.714;9.472;2023-04-15T05:47:13;97488.66;;;2.20;100.00
6413;BME280;3239;48.714;9.472;2023-04-15T05:49:38;97493.63;;;2.33;100.00
6413;BME280;3239;48.714;9.472;2023-04-15T05:52:04;97489.47;;;2.37;100.00
6413;BME280;3239;48.714;9.472;2023-04-15T05:54:30;97489.69;;;2.39;100.00
6413;BME280;3239;48.714;9.472;2023-04-15T05:56:56;97487.69;;;2.29;100.00
6413;BME280;3239;48.714;9.472;2023-04-15T05:59:22;97495.16;;;2.50;100.00
6413;BME280;3239;48.714;9.472;2023-04-15T06:01:48;97491.53;;;2.59;100.00
6413;BME280;3239;48.714;9.472;2023-04-15T06:04:14;97497.22;;;2.83;100.00
6413;BME280;3239;48.714;9.472;2023-04-15T06:06:41;97510.13;;;3.26;100.00
6413;BME280;3239;48.714;9.472;2023-04-15T06:09:07;97502.47;;;3.69;100.00
6413;BME280;3239;48.714;9.472;2023-04-15T06:11:32;97500.22;;;4.11;100.00
6413;BME280;3239;48.714;9.472;2023-04-15T06:13:58;97495.41;;;4.50;100.00
6413;BME280;3239;48.714;9.472;2023-04-15T06:16:24;97483.06;;;4.49;100.00
6413;BME280;3239;48.714;9.472;2023-04-15T06:18:50;97461.47;;;4.22;100.00
6413;BME280;3239;48.714;9.472;2023-04-15T06:21:15;97459.00;;;4.29;100.00
6413;BME280;3239;48.714;9.472;2023-04-15T06:23:41;97451.03;;;4.48;100.00
6413;BME280;3239;48.714;9.472;2023-04-15T06:26:07;97445.81;;;4.55;100.00
6413;BME280;3239;48.714;9.472;2023-04-15T06:28:33;97440.09;;;4.64;100.00
6413;BME280;3239;48.714;9.472;2023-04-15T06:30:59;97429.31;;;4.53;100.00
6413;BME280;3239;48.714;9.472;2023-04-15T06:33:25;97424.66;;;4.48;100.00
6413;BME280;3239;48.714;9.472;2023-04-15T06:35:51;97422.91;;;4.97;100.00
6413;BME280;3239;48.714;9.472;2023-04-15T06:38:17;97411.56;;;5.28;100.00
6413;BME280;3239;48.714;9.472;2023-04-15T06:40:43;97399.72;;;5.55;100.00
6413;BME280;3239;48.714;9.472;2023-04-15T06:43:09;97382.47;;;5.47;100.00
6413;BME280;3239;48.714;9.472;2023-04-15T06:45:34;97377.03;;;6.19;100.00
6413;BME280;3239;48.714;9.472;2023-04-15T06:48:00;97363.25;;;5.93;100.00
6413;BME280;3239;48.714;9.472;2023-04-15T06:50:26;97357.41;;;5.35;100.00
6413;BME280;3239;48.714;9.472;2023-04-15T06:52:55;97356.25;;;4.96;100.00
6413;BME280;3239;48.714;9.472;2023-04-15T06:55:21;97355.03;;;4.97;100.00
6413;BME280;3239;48.714;9.472;2023-04-15T06:57:47;97350.13;;;5.19;100.00
6413;BME280;3239;48.714;9.472;2023-04-15T07:00:13;97349.13;;;5.22;100.00
6413;BME280;3239;48.714;9.472;2023-04-15T07:02:39;97351.47;;;5.37;100.00
6413;BME280;3239;48.714;9.472;2023-04-15T07:05:06;97353.00;;;5.32;100.00
6413;BME280;3239;48.714;9.472;2023-04-15T07:07:32;97357.31;;;5.46;100.00
6413;BME280;3239;48.714;9.472;2023-04-15T07:09:57;97346.97;;;5.45;100.00
6413;BME280;3239;48.714;9.472;2023-04-15T07:12:23;97344.81;;;5.86;100.00
6413;BME280;3239;48.714;9.472;2023-04-15T07:14:49;97339.19;;;6.39;100.00
6413;BME280;3239;48.714;9.472;2023-04-15T07:17:15;97330.16;;;6.13;100.00
6413;BME280;3239;48.714;9.472;2023-04-15T07:19:41;97319.41;;;6.02;100.00
6413;BME280;3239;48.714;9.472;2023-04-15T07:22:06;97315.22;;;6.01;100.00
6413;BME280;3239;48.714;9.472;2023-04-15T07:24:32;97327.34;;;6.18;100.00
6413;BME280;3239;48.714;9.472;2023-04-15T07:26:58;97328.94;;;6.08;100.00
6413;BME280;3239;48.714;9.472;2023-04-15T07:29:24;97322.84;;;5.84;100.00
6413;BME280;3239;48.714;9.472;2023-04-15T07:31:51;97329.69;;;6.27;100.00
6413;BME280;3239;48.714;9.472;2023-04-15T07:34:18;97327.47;;;6.94;100.00
6413;BME280;3239;48.714;9.472;2023-04-15T07:36:44;97312.41;;;6.62;100.00
6413;BME280;3239;48.714;9.472;2023-04-15T07:39:10;97310.09;;;6.66;100.00
6413;BME280;3239;48.714;9.472;2023-04-15T07:41:36;97303.13;;;6.52;100.00
6413;BME280;3239;48.714;9.472;2023-04-15T07:44:02;97303.88;;;6.52;100.00
6413;BME280;3239;48.714;9.472;2023-04-15T07:46:28;97302.84;;;6.87;100.00
6413;BME280;3239;48.714;9.472;2023-04-15T07:48:54;97303.06;;;6.89;100.00
6413;BME280;3239;48.714;9.472;2023-04-15T07:51:20;97293.06;;;7.10;100.00
6413;BME280;3239;48.714;9.472;2023-04-15T07:53:47;97288.97;;;7.81;100.00
6413;BME280;3239;48.714;9.472;2023-04-15T07:56:13;97292.69;;;7.71;100.00
6413;BME280;3239;48.714;9.472;2023-04-15T07:58:39;97291.47;;;8.05;100.00
6413;BME280;3239;48.714;9.472;2023-04-15T08:01:06;97276.97;;;8.23;100.00
6413;BME280;3239;48.714;9.472;2023-04-15T08:03:32;97276.84;;;8.29;100.00
6413;BME280;3239;48.714;9.472;2023-04-15T08:05:58;97272.09;;;8.83;100.00
6413;BME280;3239;48.714;9.472;2023-04-15T08:08:24;97272.66;;;8.82;100.00
6413;BME280;3239;48.714;9.472;2023-04-15T08:10:50;97260.69;;;8.92;100.00
6413;BME280;3239;48.714;9.472;2023-04-15T08:13:16;97253.69;;;10.03;100.00
6413;BME280;3239;48.714;9.472;2023-04-15T08:15:41;97254.09;;;10.95;100.00
6413;BME280;3239;48.714;9.472;2023-04-15T08:18:07;97246.94;;;11.30;100.00
6413;BME280;3239;48.714;9.472;2023-04-15T08:20:33;97235.06;;;11.35;100.00
6413;BME280;3239;48.714;9.472;2023-04-15T08:22:59;97237.44;;;11.31;100.00
6413;BME280;3239;48.714;9.472;2023-04-15T08:25:25;97236.66;;;11.60;100.00
6413;BME280;3239;48.714;9.472;2023-04-15T08:27:54;97237.66;;;11.87;100.00
6413;BME280;3239;48.714;9.472;2023-04-15T08:30:20;97236.16;;;11.17;100.00
6413;BME280;3239;48.714;9.472;2023-04-15T08:32:46;97223.34;;;11.34;100.00
6413;BME280;3239;48.714;9.472;2023-04-15T08:35:12;97225.81;;;12.17;100.00
6413;BME280;3239;48.714;9.472;2023-04-15T08:37:38;97227.81;;;11.77;100.00
6413;BME280;3239;48.714;9.472;2023-04-15T08:40:05;97222.63;;;11.19;100.00
6413;BME280;3239;48.714;9.472;2023-04-15T08:42:35;97229.22;;;11.31;100.00
6413;BME280;3239;48.714;9.472;2023-04-15T08:45:03;97229.16;;;11.61;100.00
6413;BME280;3239;48.714;9.472;2023-04-15T08:47:30;97230.34;;;12.29;100.00
6413;BME280;3239;48.714;9.472;2023-04-15T08:49:58;97214.97;;;12.26;100.00
6413;BME280;3239;48.714;9.472;2023-04-15T08:52:29;97228.03;;;13.58;100.00
6413;BME280;3239;48.714;9.472;2023-04-15T08:54:57;97221.59;;;14.06;100.00
6413;BME280;3239;48.714;9.472;2023-04-15T08:57:26;97213.13;;;13.95;100.00
6413;BME280;3239;48.714;9.472;2023-04-15T08:59:56;97220.81;;;13.62;100.00
6413;BME280;3239;48.714;9.472;2023-04-15T09:02:24;97214.47;;;14.20;100.00
6413;BME280;3239;48.714;9.472;2023-04-15T09:04:52;97216.09;;;13.21;100.00
6413;BME280;3239;48.714;9.472;2023-04-15T09:07:18;97220.69;;;13.02;100.00
6413;BME280;3239;48.714;9.472;2023-04-15T09:09:44;97220.28;;;13.05;100.00
6413;BME280;3239;48.714;9.472;2023-04-15T09:12:10;97220.50;;;12.51;100.00
6413;BME280;3239;48.714;9.472;2023-04-15T09:14:41;97217.88;;;12.60;100.00
6413;BME280;3239;48.714;9.472;2023-04-15T09:17:09;97221.53;;;12.31;100.00
6413;BME280;3239;48.714;9.472;2023-04-15T09:19:36;97222.84;;;13.28;100.00
6413;BME280;3239;48.714;9.472;2023-04-15T09:22:02;97220.34;;;13.56;100.00
6413;BME280;3239;48.714;9.472;2023-04-15T09:24:37;97219.94;;;13.60;100.00
6413;BME280;3239;48.714;9.472;2023-04-15T09:27:04;97219.72;;;14.98;100.00
6413;BME280;3239;48.714;9.472;2023-04-15T09:29:30;97216.38;;;14.90;100.00
6413;BME280;3239;48.714;9.472;2023-04-15T09:31:56;97218.25;;;15.42;100.00
6413;BME280;3239;48.714;9.472;2023-04-15T09:34:34;97222.56;;;14.18;100.00
6413;BME280;3239;48.714;9.472;2023-04-15T09:37:01;97216.81;;;14.50;100.00
6413;BME280;3239;48.714;9.472;2023-04-15T09:39:27;97222.25;;;15.13;100.00
6413;BME280;3239;48.714;9.472;2023-04-15T09:42:05;97217.75;;;14.36;100.00
6413;BME280;3239;48.714;9.472;2023-04-15T09:44:31;97214.59;;;14.22;100.00
6413;BME280;3239;48.714;9.472;2023-04-15T09:46:57;97214.53;;;15.11;100.00
6413;BME280;3239;48.714;9.472;2023-04-15T09:49:23;97222.78;;;15.38;100.00
6413;BME280;3239;48.714;9.472;2023-04-15T09:51:49;97213.66;;;15.54;83.45
6413;BME280;3239;48.714;9.472;2023-04-15T09:54:21;97225.38;;;16.21;79.55
6413;BME280;3239;48.714;9.472;2023-04-15T09:56:46;97217.25;;;17.76;70.04
6413;BME280;3239;48.714;9.472;2023-04-15T09:59:15;97216.69;;;17.26;55.74
6413;BME280;3239;48.714;9.472;2023-04-15T10:01:42;97211.44;;;16.99;57.81
6413;BME280;3239;48.714;9.472;2023-04-15T10:04:09;97210.59;;;16.57;62.66
6413;BME280;3239;48.714;9.472;2023-04-15T10:06:39;97216.19;;;17.60;60.21
6413;BME280;3239;48.714;9.472;2023-04-15T10:09:05;97214.34;;;18.06;55.40
6413;BME280;3239;48.714;9.472;2023-04-15T10:11:32;97218.84;;;18.67;52.03
6413;BME280;3239;48.714;9.472;2023-04-15T10:13:59;97220.25;;;20.08;48.50
6413;BME280;3239;48.714;9.472;2023-04-15T10:16:26;97210.81;;;20.01;45.00
6413;BME280;3239;48.714;9.472;2023-04-15T10:18:56;97208.59;;;19.15;46.47
6413;BME280;3239;48.714;9.472;2023-04-15T10:21:27;97222.41;;;19.73;47.74
6413;BME280;3239;48.714;9.472;2023-04-15T10:23:53;97222.78;;;19.67;47.99
6413;BME280;3239;48.714;9.472;2023-04-15T10:26:19;97211.63;;;18.18;45.09
6413;BME280;3239;48.714;9.472;2023-04-15T10:28:46;97225.84;;;17.28;50.79
6413;BME280;3239;48.714;9.472;2023-04-15T10:31:13;97228.22;;;17.53;52.07
6413;BME280;3239;48.714;9.472;2023-04-15T10:33:41;97222.59;;;17.41;49.72
6413;BME280;3239;48.714;9.472;2023-04-15T10:36:07;97232.72;;;18.23;49.89
6413;BME280;3239;48.714;9.472;2023-04-15T10:38:44;97226.69;;;17.82;50.34
6413;BME280;3239;48.714;9.472;2023-04-15T10:41:25;97233.00;;;17.94;48.93
6413;BME280;3239;48.714;9.472;2023-04-15T10:44:00;97227.78;;;17.89;50.56
6413;BME280;3239;48.714;9.472;2023-04-15T10:46:42;97230.41;;;16.93;52.78
6413;BME280;3239;48.714;9.472;2023-04-15T10:49:16;97229.91;;;17.06;54.58
6413;BME280;3239;48.714;9.472;2023-04-15T10:51:52;97232.78;;;16.78;56.68
6413;BME280;3239;48.714;9.472;2023-04-15T10:57:06;97229.88;;;16.45;61.19
6413;BME280;3239;48.714;9.472;2023-04-15T10:59:58;97231.19;;;16.84;63.28
6413;BME280;3239;48.714;9.472;2023-04-15T11:02:44;97235.22;;;16.43;61.53
6413;BME280;3239;48.714;9.472;2023-04-15T11:05:12;97230.44;;;16.44;60.35
6413;BME280;3239;48.714;9.472;2023-04-15T11:12:44;97228.97;;;16.52;64.82
6413;BME280;3239;48.714;9.472;2023-04-15T11:18:21;97237.03;;;16.79;64.08
6413;BME280;3239;48.714;9.472;2023-04-15T11:20:58;97239.72;;;16.48;68.93
6413;BME280;3239;48.714;9.472;2023-04-15T11:23:31;97243.84;;;16.09;67.35
6413;BME280;3239;48.714;9.472;2023-04-15T11:26:00;97242.56;;;15.91;74.98
6413;BME280;3239;48.714;9.472;2023-04-15T11:28:28;97245.03;;;15.87;72.60
6413;BME280;3239;48.714;9.472;2023-04-15T11:30:55;97254.91;;;15.81;80.20
6413;BME280;3239;48.714;9.472;2023-04-15T11:33:22;97260.72;;;15.56;77.36
6413;BME280;3239;48.714;9.472;2023-04-15T11:35:49;97260.28;;;15.60;64.94
6413;BME280;3239;48.714;9.472;2023-04-15T11:38:15;97256.63;;;15.48;61.52
6413;BME280;3239;48.714;9.472;2023-04-15T11:40:44;97260.72;;;15.75;59.10
6413;BME280;3239;48.714;9.472;2023-04-15T11:43:19;97262.31;;;15.88;60.10
6413;BME280;3239;48.714;9.472;2023-04-15T11:46:00;97252.28;;;15.64;63.53
6413;BME280;3239;48.714;9.472;2023-04-15T11:48:33;97266.41;;;15.96;63.53
6413;BME280;3239;48.714;9.472;2023-04-15T11:51:00;97264.22;;;16.14;61.55
6413;BME280;3239;48.714;9.472;2023-04-15T11:56:10;97265.03;;;17.04;57.38
6413;BME280;3239;48.714;9.472;2023-04-15T11:58:37;97270.53;;;16.73;54.36
6413;BME280;3239;48.714;9.472;2023-04-15T12:01:04;97269.06;;;17.12;53.89
6413;BME280;3239;48.714;9.472;2023-04-15T12:03:41;97277.66;;;16.67;51.95
6413;BME280;3239;48.714;9.472;2023-04-15T12:13:55;97288.47;;;16.53;57.87
6413;BME280;3239;48.714;9.472;2023-04-15T12:16:23;97282.66;;;15.73;57.91
6413;BME280;3239;48.714;9.472;2023-04-15T12:18:53;97284.06;;;15.46;66.03
6413;BME280;3239;48.714;9.472;2023-04-15T12:21:26;97279.28;;;14.74;71.76
6413;BME280;3239;48.714;9.472;2023-04-15T12:23:55;97287.78;;;14.86;84.72
6413;BME280;3239;48.714;9.472;2023-04-15T12:26:35;97298.78;;;14.76;88.15
6413;BME280;3239;48.714;9.472;2023-04-15T12:29:06;97295.47;;;14.61;86.62
6413;BME280;3239;48.714;9.472;2023-04-15T12:31:34;97308.97;;;14.57;87.22
6413;BME280;3239;48.714;9.472;2023-04-15T12:34:07;97310.53;;;14.16;100.00
6413;BME280;3239;48.714;9.472;2023-04-15T12:36:33;97324.50;;;14.01;100.00
6413;BME280;3239;48.714;9.472;2023-04-15T12:39:03;97334.25;;;13.36;100.00
6413;BME280;3239;48.714;9.472;2023-04-15T12:41:30;97334.38;;;13.46;100.00
6413;BME280;3239;48.714;9.472;2023-04-15T12:43:56;97332.19;;;13.44;100.00
6413;BME280;3239;48.714;9.472;2023-04-15T12:46:22;97345.25;;;13.36;100.00
6413;BME280;3239;48.714;9.472;2023-04-15T12:48:49;97347.66;;;13.32;100.00
6413;BME280;3239;48.714;9.472;2023-04-15T12:51:15;97349.41;;;12.96;100.00
6413;BME280;3239;48.714;9.472;2023-04-15T12:53:41;97357.13;;;13.22;100.00
6413;BME280;3239;48.714;9.472;2023-04-15T12:56:08;97361.25;;;13.06;100.00
6413;BME280;3239;48.714;9.472;2023-04-15T12:58:34;97374.19;;;13.20;100.00
6413;BME280;3239;48.714;9.472;2023-04-15T13:00:59;97378.41;;;12.82;100.00
6413;BME280;3239;48.714;9.472;2023-04-15T13:03:25;97384.25;;;12.46;100.00
6413;BME280;3239;48.714;9.472;2023-04-15T13:05:51;97392.72;;;12.33;100.00
6413;BME280;3239;48.714;9.472;2023-04-15T13:08:17;97400.56;;;12.44;100.00
6413;BME280;3239;48.714;9.472;2023-04-15T13:10:43;97412.38;;;12.15;100.00
6413;BME280;3239;48.714;9.472;2023-04-15T13:13:08;97412.03;;;11.73;100.00
6413;BME280;3239;48.714;9.472;2023-04-15T13:15:34;97422.47;;;11.90;100.00
6413;BME280;3239;48.714;9.472;2023-04-15T13:18:00;97415.69;;;11.76;100.00
6413;BME280;3239;48.714;9.472;2023-04-15T13:20:27;97432.66;;;11.29;100.00
6413;BME280;3239;48.714;9.472;2023-04-15T13:22:53;97438.16;;;11.29;100.00
6413;BME280;3239;48.714;9.472;2023-04-15T13:25:19;97434.09;;;11.15;100.00
6413;BME280;3239;48.714;9.472;2023-04-15T13:27:45;97440.88;;;11.22;100.00
6413;BME280;3239;48.714;9.472;2023-04-15T13:30:11;97435.03;;;11.40;100.00
6413;BME280;3239;48.714;9.472;2023-04-15T13:32:37;97448.41;;;11.44;100.00
6413;BME280;3239;48.714;9.472;2023-04-15T13:35:03;97451.56;;;11.63;100.00
6413;BME280;3239;48.714;9.472;2023-04-15T13:37:30;97460.16;;;11.89;100.00
6413;BME280;3239;48.714;9.472;2023-04-15T13:39:56;97458.09;;;11.52;100.00